sensor_id;sensor_type;location;lat;lon;timestamp;P1;durP1;ratioP1;P2;durP2;ratioP2
76373;SDS011;65197;50.164;8.012;2023-05-07T00:00:03;3.47;;;1.98;;
76373;SDS011;65197;50.164;8.012;2023-05-07T00:02:32;3.13;;;1.80;;
76373;SDS011;65197;50.164;8.012;2023-05-07T00:04:58;3.22;;;1.83;;
76373;SDS011;65197;50.164;8.012;2023-05-07T00:07:23;3.22;;;2.05;;
76373;SDS011;65197;50.164;8.012;2023-05-07T00:09:49;3.85;;;1.70;;
76373;SDS011;65197;50.164;8.012;2023-05-07T00:12:14;3.20;;;1.92;;
76373;SDS011;65197;50.164;8.012;2023-05-07T00:14:40;3.78;;;2.20;;
76373;SDS011;65197;50.164;8.012;2023-05-07T00:17:05;3.10;;;2.08;;
76373;SDS011;65197;50.164;8.012;2023-05-07T00:19:31;3.95;;;2.05;;
76373;SDS011;65197;50.164;8.012;2023-05-07T00:21:56;3.28;;;1.90;;
76373;SDS011;65197;50.164;8.012;2023-05-07T00:24:24;2.55;;;1.77;;
76373;SDS011;65197;50.164;8.012;2023-05-07T00:26:49;4.07;;;1.70;;
76373;SDS011;65197;50.164;8.012;2023-05-07T00:29:15;3.50;;;2.17;;
76373;SDS011;65197;50.164;8.012;2023-05-07T00:31:40;3.17;;;1.55;;
76373;SDS011;65197;50.164;8.012;2023-05-07T00:34:05;2.00;;;1.40;;
76373;SDS011;65197;50.164;8.012;2023-05-07T00:36:31;4.25;;;2.10;;
76373;SDS011;65197;50.164;8.012;2023-05-07T00:38:57;2.17;;;1.73;;
76373;SDS011;65197;50.164;8.012;2023-05-07T00:41:25;3.70;;;1.90;;
76373;SDS011;65197;50.164;8.012;2023-05-07T00:43:51;1.90;;;1.50;;
76373;SDS011;65197;50.164;8.012;2023-05-07T00:46:17;2.90;;;2.05;;
76373;SDS011;65197;50.164;8.012;2023-05-07T00:48:45;3.20;;;1.77;;
76373;SDS011;65197;50.164;8.012;2023-05-07T00:51:11;2.97;;;1.80;;
76373;SDS011;65197;50.164;8.012;2023-05-07T00:53:36;3.45;;;1.90;;
76373;SDS011;65197;50.164;8.012;2023-05-07T00:56:03;4.40;;;2.03;;
76373;SDS011;65197;50.164;8.012;2023-05-07T00:58:28;3.08;;;1.73;;
76373;SDS011;65197;50.164;8.012;2023-05-07T01:00:55;2.50;;;1.63;;
76373;SDS011;65197;50.164;8.012;2023-05-07T01:03:20;2.45;;;1.60;;
76373;SDS011;65197;50.164;8.012;2023-05-07T01:05:46;3.42;;;2.10;;
76373;SDS011;65197;50.164;8.012;2023-05-07T01:08:13;4.00;;;1.73;;
76373;SDS011;65197;50.164;8.012;2023-05-07T01:10:40;2.95;;;1.85;;
76373;SDS011;65197;50.164;8.012;2023-05-07T01:13:08;2.85;;;1.92;;
76373;SDS011;65197;50.164;8.012;2023-05-07T01:15:35;2.80;;;1.90;;
76373;SDS011;65197;50.164;8.012;2023-05-07T01:18:01;3.17;;;2.00;;
76373;SDS011;65197;50.164;8.012;2023-05-07T01:20:26;2.97;;;1.80;;
76373;SDS011;65197;50.164;8.012;2023-05-07T01:22:53;2.55;;;1.75;;
76373;SDS011;65197;50.164;8.012;2023-05-07T01:25:19;4.55;;;1.90;;
76373;SDS011;65197;50.164;8.012;2023-05-07T01:27:45;4.30;;;2.22;;
76373;SDS011;65197;50.164;8.012;2023-05-07T01:30:11;2.47;;;1.85;;
76373;SDS011;65197;50.164;8.012;2023-05-07T01:32:42;3.75;;;1.90;;
76373;SDS011;65197;50.164;8.012;2023-05-07T01:35:15;2.92;;;2.10;;
76373;SDS011;65197;50.164;8.012;2023-05-07T01:37:47;3.60;;;2.20;;
76373;SDS011;65197;50.164;8.012;2023-05-07T01:40:13;4.28;;;2.53;;
76373;SDS011;65197;50.164;8.012;2023-05-07T01:42:39;4.07;;;2.53;;
76373;SDS011;65197;50.164;8.012;2023-05-07T01:45:07;4.10;;;2.65;;
76373;SDS011;65197;50.164;8.012;2023-05-07T01:47:33;3.92;;;2.78;;
76373;SDS011;65197;50.164;8.012;2023-05-07T01:50:00;4.38;;;3.22;;
76373;SDS011;65197;50.164;8.012;2023-05-07T01:52:27;4.10;;;2.45;;
76373;SDS011;65197;50.164;8.012;2023-05-07T01:54:53;3.72;;;2.60;;
76373;SDS011;65197;50.164;8.012;2023-05-07T01:57:18;3.25;;;2.42;;
76373;SDS011;65197;50.164;8.012;2023-05-07T01:59:43;5.07;;;2.70;;
76373;SDS011;65197;50.164;8.012;2023-05-07T02:02:09;5.03;;;2.10;;
76373;SDS011;65197;50.164;8.012;2023-05-07T02:04:34;4.40;;;2.45;;
76373;SDS011;65197;50.164;8.012;2023-05-07T02:07:00;4.38;;;2.50;;
76373;SDS011;65197;50.164;8.012;2023-05-07T02:09:25;3.03;;;2.13;;
76373;SDS011;65197;50.164;8.012;2023-05-07T02:11:50;3.65;;;2.20;;
76373;SDS011;65197;50.164;8.012;2023-05-07T02:14:16;4.15;;;2.30;;
76373;SDS011;65197;50.164;8.012;2023-05-07T02:16:41;4.50;;;2.45;;
76373;SDS011;65197;50.164;8.012;2023-05-07T02:19:07;3.38;;;2.38;;
76373;SDS011;65197;50.164;8.012;2023-05-07T02:21:32;5.13;;;2.67;;
76373;SDS011;65197;50.164;8.012;2023-05-07T02:23:57;3.70;;;2.35;;
76373;SDS011;65197;50.164;8.012;2023-05-07T02:26:23;3.65;;;2.70;;
76373;SDS011;65197;50.164;8.012;2023-05-07T02:28:48;5.93;;;2.85;;
76373;SDS011;65197;50.164;8.012;2023-05-07T02:31:14;3.75;;;2.80;;
76373;SDS011;65197;50.164;8.012;2023-05-07T02:33:39;3.78;;;2.75;;
76373;SDS011;65197;50.164;8.012;2023-05-07T02:36:08;2.80;;;2.35;;
76373;SDS011;65197;50.164;8.012;2023-05-07T02:38:34;4.07;;;2.85;;
76373;SDS011;65197;50.164;8.012;2023-05-07T02:41:00;5.20;;;2.60;;
76373;SDS011;65197;50.164;8.012;2023-05-07T02:43:25;4.38;;;3.20;;
76373;SDS011;65197;50.164;8.012;2023-05-07T02:46:02;5.32;;;2.90;;
76373;SDS011;65197;50.164;8.012;2023-05-07T02:48:29;4.65;;;2.90;;
76373;SDS011;65197;50.164;8.012;2023-05-07T02:50:54;4.70;;;2.95;;
76373;SDS011;65197;50.164;8.012;2023-05-07T02:53:20;4.70;;;3.10;;
76373;SDS011;65197;50.164;8.012;2023-05-07T02:55:45;3.95;;;2.80;;
76373;SDS011;65197;50.164;8.012;2023-05-07T02:58:11;4.00;;;3.38;;
76373;SDS011;65197;50.164;8.012;2023-05-07T03:00:36;5.93;;;3.47;;
76373;SDS011;65197;50.164;8.012;2023-05-07T03:03:02;4.35;;;3.05;;
76373;SDS011;65197;50.164;8.012;2023-05-07T03:05:27;5.45;;;3.20;;
76373;SDS011;65197;50.164;8.012;2023-05-07T03:07:52;4.10;;;2.97;;
76373;SDS011;65197;50.164;8.012;2023-05-07T03:10:18;4.18;;;3.17;;
76373;SDS011;65197;50.164;8.012;2023-05-07T03:12:43;4.32;;;3.40;;
76373;SDS011;65197;50.164;8.012;2023-05-07T03:15:09;4.57;;;3.03;;
76373;SDS011;65197;50.164;8.012;2023-05-07T03:17:36;5.70;;;3.35;;
76373;SDS011;65197;50.164;8.012;2023-05-07T03:20:01;4.45;;;2.92;;
76373;SDS011;65197;50.164;8.012;2023-05-07T03:22:27;5.15;;;3.17;;
76373;SDS011;65197;50.164;8.012;2023-05-07T03:24:53;5.55;;;3.58;;
76373;SDS011;65197;50.164;8.012;2023-05-07T03:27:18;4.72;;;3.00;;
76373;SDS011;65197;50.164;8.012;2023-05-07T03:29:43;3.28;;;2.55;;
76373;SDS011;65197;50.164;8.012;2023-05-07T03:32:09;3.88;;;2.70;;
76373;SDS011;65197;50.164;8.012;2023-05-07T03:34:34;6.32;;;3.45;;
76373;SDS011;65197;50.164;8.012;2023-05-07T03:36:59;4.03;;;2.67;;
76373;SDS011;65197;50.164;8.012;2023-05-07T03:39:25;4.68;;;2.30;;
76373;SDS011;65197;50.164;8.012;2023-05-07T03:41:50;4.20;;;2.40;;
76373;SDS011;65197;50.164;8.012;2023-05-07T03:44:15;3.97;;;2.70;;
76373;SDS011;65197;50.164;8.012;2023-05-07T03:46:41;4.45;;;2.90;;
76373;SDS011;65197;50.164;8.012;2023-05-07T03:49:06;4.80;;;2.72;;
76373;SDS011;65197;50.164;8.012;2023-05-07T03:51:31;3.60;;;2.42;;
76373;SDS011;65197;50.164;8.012;2023-05-07T03:53:57;4.53;;;2.65;;
76373;SDS011;65197;50.164;8.012;2023-05-07T03:56:22;4.35;;;2.70;;
76373;SDS011;65197;50.164;8.012;2023-05-07T03:58:51;5.03;;;2.75;;
76373;SDS011;65197;50.164;8.012;2023-05-07T04:01:17;5.53;;;3.13;;
76373;SDS011;65197;50.164;8.012;2023-05-07T04:03:42;4.72;;;3.30;;
76373;SDS011;65197;50.164;8.012;2023-05-07T04:06:07;6.13;;;3.20;;
76373;SDS011;65197;50.164;8.012;2023-05-07T04:08:33;5.43;;;3.38;;
76373;SDS011;65197;50.164;8.012;2023-05-07T04:10:58;4.35;;;2.92;;
76373;SDS011;65197;50.164;8.012;2023-05-07T04:13:24;3.97;;;2.67;;
76373;SDS011;65197;50.164;8.012;2023-05-07T04:15:50;3.97;;;2.58;;
76373;SDS011;65197;50.164;8.012;2023-05-07T04:18:16;3.97;;;3.13;;
76373;SDS011;65197;50.164;8.012;2023-05-07T04:20:41;4.22;;;3.13;;
76373;SDS011;65197;50.164;8.012;2023-05-07T04:23:07;5.00;;;3.08;;
76373;SDS011;65197;50.164;8.012;2023-05-07T04:25:32;5.00;;;2.97;;
76373;SDS011;65197;50.164;8.012;2023-05-07T04:27:58;4.30;;;2.70;;
76373;SDS011;65197;50.164;8.012;2023-05-07T04:30:24;6.22;;;3.38;;
76373;SDS011;65197;50.164;8.012;2023-05-07T04:32:49;4.72;;;3.20;;
76373;SDS011;65197;50.164;8.012;2023-05-07T04:35:15;4.97;;;3.13;;
76373;SDS011;65197;50.164;8.012;2023-05-07T04:37:40;4.90;;;3.03;;
76373;SDS011;65197;50.164;8.012;2023-05-07T04:40:06;4.47;;;2.80;;
76373;SDS011;65197;50.164;8.012;2023-05-07T04:42:32;5.55;;;2.95;;
76373;SDS011;65197;50.164;8.012;2023-05-07T04:44:57;4.85;;;2.60;;
76373;SDS011;65197;50.164;8.012;2023-05-07T04:47:23;5.15;;;2.50;;
76373;SDS011;65197;50.164;8.012;2023-05-07T04:49:48;5.18;;;2.50;;
76373;SDS011;65197;50.164;8.012;2023-05-07T04:52:13;4.07;;;2.22;;
76373;SDS011;65197;50.164;8.012;2023-05-07T04:54:40;3.53;;;2.60;;
76373;SDS011;65197;50.164;8.012;2023-05-07T04:57:05;4.30;;;2.30;;
76373;SDS011;65197;50.164;8.012;2023-05-07T04:59:31;4.15;;;2.40;;
76373;SDS011;65197;50.164;8.012;2023-05-07T05:01:57;2.67;;;2.10;;
76373;SDS011;65197;50.164;8.012;2023-05-07T05:04:23;3.30;;;2.38;;
76373;SDS011;65197;50.164;8.012;2023-05-07T05:06:48;3.15;;;2.10;;
76373;SDS011;65197;50.164;8.012;2023-05-07T05:09:13;5.55;;;2.67;;
76373;SDS011;65197;50.164;8.012;2023-05-07T05:11:39;3.92;;;2.20;;
76373;SDS011;65197;50.164;8.012;2023-05-07T05:14:05;3.72;;;2.47;;
76373;SDS011;65197;50.164;8.012;2023-05-07T05:16:30;3.40;;;2.30;;
76373;SDS011;65197;50.164;8.012;2023-05-07T05:18:55;4.90;;;2.65;;
76373;SDS011;65197;50.164;8.012;2023-05-07T05:21:21;4.38;;;2.38;;
76373;SDS011;65197;50.164;8.012;2023-05-07T05:23:46;3.13;;;2.28;;
76373;SDS011;65197;50.164;8.012;2023-05-07T05:26:12;4.43;;;2.78;;
76373;SDS011;65197;50.164;8.012;2023-05-07T05:28:37;3.80;;;2.85;;
76373;SDS011;65197;50.164;8.012;2023-05-07T05:31:03;4.65;;;2.78;;
76373;SDS011;65197;50.164;8.012;2023-05-07T05:33:29;5.85;;;2.78;;
76373;SDS011;65197;50.164;8.012;2023-05-07T05:35:54;3.75;;;2.40;;
76373;SDS011;65197;50.164;8.012;2023-05-07T05:38:20;3.53;;;2.30;;
76373;SDS011;65197;50.164;8.012;2023-05-07T05:40:46;4.28;;;2.30;;
76373;SDS011;65197;50.164;8.012;2023-05-07T05:43:11;5.15;;;2.90;;
76373;SDS011;65197;50.164;8.012;2023-05-07T05:45:37;4.78;;;2.50;;
76373;SDS011;65197;50.164;8.012;2023-05-07T05:48:02;4.32;;;2.92;;
76373;SDS011;65197;50.164;8.012;2023-05-07T05:50:28;3.88;;;2.30;;
76373;SDS011;65197;50.164;8.012;2023-05-07T05:52:53;4.70;;;2.80;;
76373;SDS011;65197;50.164;8.012;2023-05-07T05:55:19;3.47;;;2.42;;
76373;SDS011;65197;50.164;8.012;2023-05-07T05:57:44;4.53;;;2.50;;
76373;SDS011;65197;50.164;8.012;2023-05-07T06:00:10;2.97;;;2.38;;
76373;SDS011;65197;50.164;8.012;2023-05-07T06:05:11;3.80;;;2.58;;
76373;SDS011;65197;50.164;8.012;2023-05-07T06:07:37;3.80;;;2.53;;
76373;SDS011;65197;50.164;8.012;2023-05-07T06:10:02;5.22;;;2.10;;
76373;SDS011;65197;50.164;8.012;2023-05-07T06:12:27;4.43;;;2.25;;
76373;SDS011;65197;50.164;8.012;2023-05-07T06:14:53;3.05;;;2.20;;
76373;SDS011;65197;50.164;8.012;2023-05-07T06:19:53;3.95;;;2.30;;
76373;SDS011;65197;50.164;8.012;2023-05-07T06:22:19;2.88;;;2.20;;
76373;SDS011;65197;50.164;8.012;2023-05-07T06:24:44;3.63;;;2.60;;
76373;SDS011;65197;50.164;8.012;2023-05-07T06:27:11;3.88;;;2.25;;
76373;SDS011;65197;50.164;8.012;2023-05-07T06:29:36;4.68;;;2.67;;
76373;SDS011;65197;50.164;8.012;2023-05-07T06:32:08;2.83;;;2.22;;
76373;SDS011;65197;50.164;8.012;2023-05-07T06:34:34;4.25;;;2.42;;
76373;SDS011;65197;50.164;8.012;2023-05-07T06:37:00;4.75;;;2.58;;
76373;SDS011;65197;50.164;8.012;2023-05-07T06:39:26;3.30;;;2.35;;
76373;SDS011;65197;50.164;8.012;2023-05-07T06:41:51;4.45;;;2.42;;
76373;SDS011;65197;50.164;8.012;2023-05-07T06:44:17;2.63;;;1.98;;
76373;SDS011;65197;50.164;8.012;2023-05-07T06:46:42;4.05;;;2.42;;
76373;SDS011;65197;50.164;8.012;2023-05-07T06:49:07;3.28;;;2.20;;
76373;SDS011;65197;50.164;8.012;2023-05-07T06:51:33;5.05;;;2.28;;
76373;SDS011;65197;50.164;8.012;2023-05-07T06:53:58;5.05;;;2.28;;
76373;SDS011;65197;50.164;8.012;2023-05-07T06:56:24;3.15;;;2.47;;
76373;SDS011;65197;50.164;8.012;2023-05-07T06:58:50;4.50;;;2.42;;
76373;SDS011;65197;50.164;8.012;2023-05-07T07:01:15;3.17;;;2.22;;
76373;SDS011;65197;50.164;8.012;2023-05-07T07:03:40;3.53;;;2.30;;
76373;SDS011;65197;50.164;8.012;2023-05-07T07:06:06;4.88;;;2.33;;
76373;SDS011;65197;50.164;8.012;2023-05-07T07:08:31;3.20;;;2.22;;
76373;SDS011;65197;50.164;8.012;2023-05-07T07:10:57;3.22;;;2.40;;
76373;SDS011;65197;50.164;8.012;2023-05-07T07:13:22;4.65;;;2.35;;
76373;SDS011;65197;50.164;8.012;2023-05-07T07:15:48;4.22;;;2.40;;
76373;SDS011;65197;50.164;8.012;2023-05-07T07:18:13;4.68;;;2.42;;
76373;SDS011;65197;50.164;8.012;2023-05-07T07:20:39;4.13;;;2.58;;
76373;SDS011;65197;50.164;8.012;2023-05-07T07:23:04;4.25;;;2.30;;
76373;SDS011;65197;50.164;8.012;2023-05-07T07:25:30;4.07;;;2.25;;
76373;SDS011;65197;50.164;8.012;2023-05-07T07:27:55;3.72;;;2.45;;
76373;SDS011;65197;50.164;8.012;2023-05-07T07:30:21;4.38;;;2.55;;
76373;SDS011;65197;50.164;8.012;2023-05-07T07:32:46;3.45;;;2.60;;
76373;SDS011;65197;50.164;8.012;2023-05-07T07:35:11;3.42;;;2.45;;
76373;SDS011;65197;50.164;8.012;2023-05-07T07:37:37;4.40;;;2.50;;
76373;SDS011;65197;50.164;8.012;2023-05-07T07:40:02;4.43;;;2.72;;
76373;SDS011;65197;50.164;8.012;2023-05-07T07:42:28;4.03;;;2.28;;
76373;SDS011;65197;50.164;8.012;2023-05-07T07:44:54;4.60;;;2.42;;
76373;SDS011;65197;50.164;8.012;2023-05-07T07:47:19;4.57;;;2.53;;
76373;SDS011;65197;50.164;8.012;2023-05-07T07:49:45;3.80;;;2.40;;
76373;SDS011;65197;50.164;8.012;2023-05-07T07:52:10;4.72;;;2.40;;
76373;SDS011;65197;50.164;8.012;2023-05-07T07:54:36;4.07;;;2.58;;
76373;SDS011;65197;50.164;8.012;2023-05-07T07:57:01;4.03;;;2.90;;
76373;SDS011;65197;50.164;8.012;2023-05-07T07:59:26;2.65;;;2.20;;
76373;SDS011;65197;50.164;8.012;2023-05-07T08:01:52;3.22;;;2.47;;
76373;SDS011;65197;50.164;8.012;2023-05-07T08:04:20;2.88;;;2.20;;
76373;SDS011;65197;50.164;8.012;2023-05-07T08:06:46;4.30;;;2.72;;
76373;SDS011;65197;50.164;8.012;2023-05-07T08:09:11;3.97;;;2.50;;
76373;SDS011;65197;50.164;8.012;2023-05-07T08:11:37;3.67;;;2.40;;
76373;SDS011;65197;50.164;8.012;2023-05-07T08:14:03;3.35;;;2.50;;
76373;SDS011;65197;50.164;8.012;2023-05-07T08:16:29;3.35;;;2.40;;
76373;SDS011;65197;50.164;8.012;2023-05-07T08:18:54;4.18;;;2.85;;
76373;SDS011;65197;50.164;8.012;2023-05-07T08:21:20;3.55;;;2.60;;
76373;SDS011;65197;50.164;8.012;2023-05-07T08:23:45;4.38;;;2.28;;
76373;SDS011;65197;50.164;8.012;2023-05-07T08:26:11;5.07;;;2.95;;
76373;SDS011;65197;50.164;8.012;2023-05-07T08:28:36;4.07;;;2.58;;
76373;SDS011;65197;50.164;8.012;2023-05-07T08:31:01;3.50;;;2.45;;
76373;SDS011;65197;50.164;8.012;2023-05-07T08:33:27;4.30;;;2.85;;
76373;SDS011;65197;50.164;8.012;2023-05-07T08:35:52;3.30;;;2.45;;
76373;SDS011;65197;50.164;8.012;2023-05-07T08:38:18;3.63;;;2.38;;
76373;SDS011;65197;50.164;8.012;2023-05-07T08:40:43;4.40;;;2.40;;
76373;SDS011;65197;50.164;8.012;2023-05-07T08:43:11;5.15;;;2.53;;
76373;SDS011;65197;50.164;8.012;2023-05-07T08:45:37;3.03;;;2.42;;
76373;SDS011;65197;50.164;8.012;2023-05-07T08:48:06;3.28;;;2.13;;
76373;SDS011;65197;50.164;8.012;2023-05-07T08:50:37;2.70;;;2.30;;
76373;SDS011;65197;50.164;8.012;2023-05-07T08:53:03;3.90;;;2.40;;
76373;SDS011;65197;50.164;8.012;2023-05-07T08:55:30;3.47;;;2.42;;
76373;SDS011;65197;50.164;8.012;2023-05-07T08:57:55;3.40;;;2.40;;
76373;SDS011;65197;50.164;8.012;2023-05-07T09:00:21;3.92;;;2.60;;
76373;SDS011;65197;50.164;8.012;2023-05-07T09:02:46;3.38;;;2.42;;
76373;SDS011;65197;50.164;8.012;2023-05-07T09:05:12;4.20;;;2.60;;
76373;SDS011;65197;50.164;8.012;2023-05-07T09:07:37;3.65;;;2.42;;
76373;SDS011;65197;50.164;8.012;2023-05-07T09:10:03;3.20;;;2.50;;
76373;SDS011;65197;50.164;8.012;2023-05-07T09:12:29;4.03;;;2.40;;
76373;SDS011;65197;50.164;8.012;2023-05-07T09:14:55;3.35;;;2.40;;
76373;SDS011;65197;50.164;8.012;2023-05-07T09:17:21;3.35;;;2.20;;
76373;SDS011;65197;50.164;8.012;2023-05-07T09:19:46;5.10;;;2.47;;
76373;SDS011;65197;50.164;8.012;2023-05-07T09:22:12;3.25;;;2.55;;
76373;SDS011;65197;50.164;8.012;2023-05-07T09:24:38;3.28;;;2.05;;
76373;SDS011;65197;50.164;8.012;2023-05-07T09:27:04;3.55;;;2.05;;
76373;SDS011;65197;50.164;8.012;2023-05-07T09:29:30;2.85;;;2.15;;
76373;SDS011;65197;50.164;8.012;2023-05-07T09:32:03;3.17;;;2.22;;
76373;SDS011;65197;50.164;8.012;2023-05-07T09:34:32;12.25;;;4.28;;
76373;SDS011;65197;50.164;8.012;2023-05-07T09:37:02;2.95;;;2.33;;
76373;SDS011;65197;50.164;8.012;2023-05-07T09:39:49;3.50;;;2.20;;
76373;SDS011;65197;50.164;8.012;2023-05-07T09:42:14;2.95;;;2.00;;
76373;SDS011;65197;50.164;8.012;2023-05-07T09:44:40;4.07;;;2.00;;
76373;SDS011;65197;50.164;8.012;2023-05-07T09:47:06;2.85;;;2.13;;
76373;SDS011;65197;50.164;8.012;2023-05-07T09:49:36;2.70;;;2.03;;
76373;SDS011;65197;50.164;8.012;2023-05-07T09:52:04;3.92;;;2.20;;
76373;SDS011;65197;50.164;8.012;2023-05-07T09:54:36;3.42;;;2.10;;
76373;SDS011;65197;50.164;8.012;2023-05-07T09:57:03;3.05;;;2.33;;
76373;SDS011;65197;50.164;8.012;2023-05-07T09:59:31;3.13;;;2.30;;
76373;SDS011;65197;50.164;8.012;2023-05-07T10:01:58;3.17;;;2.10;;
76373;SDS011;65197;50.164;8.012;2023-05-07T10:04:25;3.75;;;2.50;;
76373;SDS011;65197;50.164;8.012;2023-05-07T10:06:51;2.83;;;2.10;;
76373;SDS011;65197;50.164;8.012;2023-05-07T10:09:18;2.92;;;1.92;;
76373;SDS011;65197;50.164;8.012;2023-05-07T10:11:44;2.72;;;2.05;;
76373;SDS011;65197;50.164;8.012;2023-05-07T10:14:10;3.92;;;2.55;;
76373;SDS011;65197;50.164;8.012;2023-05-07T10:16:36;2.72;;;2.00;;
76373;SDS011;65197;50.164;8.012;2023-05-07T10:19:06;3.63;;;2.30;;
76373;SDS011;65197;50.164;8.012;2023-05-07T10:21:34;2.83;;;2.22;;
76373;SDS011;65197;50.164;8.012;2023-05-07T10:24:21;3.15;;;2.15;;
76373;SDS011;65197;50.164;8.012;2023-05-07T10:26:51;3.58;;;2.20;;
76373;SDS011;65197;50.164;8.012;2023-05-07T10:29:24;4.03;;;2.13;;
76373;SDS011;65197;50.164;8.012;2023-05-07T10:31:59;2.90;;;2.50;;
76373;SDS011;65197;50.164;8.012;2023-05-07T10:34:50;3.88;;;2.50;;
76373;SDS011;65197;50.164;8.012;2023-05-07T10:37:20;3.08;;;2.00;;
76373;SDS011;65197;50.164;8.012;2023-05-07T10:39:46;2.58;;;2.08;;
76373;SDS011;65197;50.164;8.012;2023-05-07T10:42:13;2.67;;;2.35;;
76373;SDS011;65197;50.164;8.012;2023-05-07T10:44:39;2.42;;;1.92;;
76373;SDS011;65197;50.164;8.012;2023-05-07T10:52:12;4.70;;;2.28;;
76373;SDS011;65197;50.164;8.012;2023-05-07T10:54:45;2.40;;;1.90;;
76373;SDS011;65197;50.164;8.012;2023-05-07T11:00:02;2.55;;;1.92;;
76373;SDS011;65197;50.164;8.012;2023-05-07T11:05:30;3.60;;;1.80;;
76373;SDS011;65197;50.164;8.012;2023-05-07T11:07:57;3.72;;;2.50;;
76373;SDS011;65197;50.164;8.012;2023-05-07T11:11:09;2.90;;;2.40;;
76373;SDS011;65197;50.164;8.012;2023-05-07T11:13:17;3.80;;;2.50;;
76373;SDS011;65197;50.164;8.012;2023-05-07T11:15:46;4.85;;;2.60;;
76373;SDS011;65197;50.164;8.012;2023-05-07T11:18:16;3.70;;;2.10;;
76373;SDS011;65197;50.164;8.012;2023-05-07T11:20:50;3.38;;;2.22;;
76373;SDS011;65197;50.164;8.012;2023-05-07T11:28:27;2.53;;;1.95;;
76373;SDS011;65197;50.164;8.012;2023-05-07T11:30:53;2.80;;;1.92;;
76373;SDS011;65197;50.164;8.012;2023-05-07T11:33:19;3.67;;;2.45;;
76373;SDS011;65197;50.164;8.012;2023-05-07T11:35:45;5.20;;;2.35;;
76373;SDS011;65197;50.164;8.012;2023-05-07T11:38:11;3.63;;;2.20;;
76373;SDS011;65197;50.164;8.012;2023-05-07T11:43:16;3.78;;;2.35;;
76373;SDS011;65197;50.164;8.012;2023-05-07T11:45:42;2.90;;;2.00;;
76373;SDS011;65197;50.164;8.012;2023-05-07T11:48:07;2.88;;;2.00;;
76373;SDS011;65197;50.164;8.012;2023-05-07T11:50:33;3.35;;;2.20;;
76373;SDS011;65197;50.164;8.012;2023-05-07T11:52:58;3.53;;;2.33;;
76373;SDS011;65197;50.164;8.012;2023-05-07T11:55:24;3.40;;;2.40;;
76373;SDS011;65197;50.164;8.012;2023-05-07T11:57:51;2.95;;;2.10;;
76373;SDS011;65197;50.164;8.012;2023-05-07T12:00:16;2.67;;;2.10;;
76373;SDS011;65197;50.164;8.012;2023-05-07T12:02:43;3.17;;;2.10;;
76373;SDS011;65197;50.164;8.012;2023-05-07T12:05:10;3.58;;;2.47;;
76373;SDS011;65197;50.164;8.012;2023-05-07T12:07:35;3.90;;;2.50;;
76373;SDS011;65197;50.164;8.012;2023-05-07T12:10:05;3.63;;;2.20;;
76373;SDS011;65197;50.164;8.012;2023-05-07T12:12:32;3.70;;;2.42;;
76373;SDS011;65197;50.164;8.012;2023-05-07T12:15:03;3.72;;;1.70;;
76373;SDS011;65197;50.164;8.012;2023-05-07T12:17:29;3.05;;;1.90;;
76373;SDS011;65197;50.164;8.012;2023-05-07T12:19:54;3.28;;;1.92;;
76373;SDS011;65197;50.164;8.012;2023-05-07T12:22:20;4.88;;;2.20;;
76373;SDS011;65197;50.164;8.012;2023-05-07T12:24:46;3.45;;;1.88;;
76373;SDS011;65197;50.164;8.012;2023-05-07T12:27:16;2.10;;;1.70;;
76373;SDS011;65197;50.164;8.012;2023-05-07T12:29:49;4.78;;;2.35;;
76373;SDS011;65197;50.164;8.012;2023-05-07T12:32:19;2.67;;;1.90;;
76373;SDS011;65197;50.164;8.012;2023-05-07T12:34:46;4.22;;;1.73;;
76373;SDS011;65197;50.164;8.012;2023-05-07T12:37:12;3.17;;;1.95;;
76373;SDS011;65197;50.164;8.012;2023-05-07T12:39:38;2.30;;;1.80;;
76373;SDS011;65197;50.164;8.012;2023-05-07T12:42:08;2.97;;;2.10;;
76373;SDS011;65197;50.164;8.012;2023-05-07T12:44:40;3.22;;;2.00;;
76373;SDS011;65197;50.164;8.012;2023-05-07T12:47:10;2.65;;;2.10;;
76373;SDS011;65197;50.164;8.012;2023-05-07T12:49:35;3.45;;;2.60;;
76373;SDS011;65197;50.164;8.012;2023-05-07T12:52:03;4.85;;;2.67;;
76373;SDS011;65197;50.164;8.012;2023-05-07T12:54:34;3.28;;;2.60;;
76373;SDS011;65197;50.164;8.012;2023-05-07T12:57:02;2.40;;;1.90;;
76373;SDS011;65197;50.164;8.012;2023-05-07T12:59:31;2.47;;;2.20;;
76373;SDS011;65197;50.164;8.012;2023-05-07T13:02:00;3.00;;;2.17;;
76373;SDS011;65197;50.164;8.012;2023-05-07T13:04:25;10.40;;;2.53;;
76373;SDS011;65197;50.164;8.012;2023-05-07T13:06:51;3.70;;;2.25;;
76373;SDS011;65197;50.164;8.012;2023-05-07T13:09:16;4.88;;;2.42;;
76373;SDS011;65197;50.164;8.012;2023-05-07T13:11:41;2.80;;;2.38;;
76373;SDS011;65197;50.164;8.012;2023-05-07T13:14:07;4.30;;;2.45;;
76373;SDS011;65197;50.164;8.012;2023-05-07T13:16:33;4.10;;;2.83;;
76373;SDS011;65197;50.164;8.012;2023-05-07T13:18:58;4.47;;;2.30;;
76373;SDS011;65197;50.164;8.012;2023-05-07T13:21:23;4.07;;;2.40;;
76373;SDS011;65197;50.164;8.012;2023-05-07T13:23:49;3.15;;;2.00;;
76373;SDS011;65197;50.164;8.012;2023-05-07T13:26:14;3.47;;;2.05;;
76373;SDS011;65197;50.164;8.012;2023-05-07T13:28:40;2.25;;;1.80;;
76373;SDS011;65197;50.164;8.012;2023-05-07T13:31:05;6.05;;;2.50;;
76373;SDS011;65197;50.164;8.012;2023-05-07T13:33:31;6.13;;;2.10;;
76373;SDS011;65197;50.164;8.012;2023-05-07T13:35:57;3.60;;;2.40;;
76373;SDS011;65197;50.164;8.012;2023-05-07T13:38:23;3.28;;;2.80;;
76373;SDS011;65197;50.164;8.012;2023-05-07T13:40:48;6.05;;;2.80;;
76373;SDS011;65197;50.164;8.012;2023-05-07T13:43:13;3.33;;;2.92;;
76373;SDS011;65197;50.164;8.012;2023-05-07T13:45:39;3.13;;;2.58;;
76373;SDS011;65197;50.164;8.012;2023-05-07T13:48:05;4.32;;;2.70;;
76373;SDS011;65197;50.164;8.012;2023-05-07T13:50:30;3.30;;;2.30;;
76373;SDS011;65197;50.164;8.012;2023-05-07T13:52:56;3.80;;;2.40;;
76373;SDS011;65197;50.164;8.012;2023-05-07T13:55:21;3.00;;;2.42;;
76373;SDS011;65197;50.164;8.012;2023-05-07T13:57:53;4.18;;;2.45;;
76373;SDS011;65197;50.164;8.012;2023-05-07T14:00:20;3.88;;;2.30;;
76373;SDS011;65197;50.164;8.012;2023-05-07T14:02:46;3.50;;;2.90;;
76373;SDS011;65197;50.164;8.012;2023-05-07T14:05:11;4.20;;;3.22;;
76373;SDS011;65197;50.164;8.012;2023-05-07T14:07:38;3.85;;;3.45;;
76373;SDS011;65197;50.164;8.012;2023-05-07T14:10:04;4.65;;;3.10;;
76373;SDS011;65197;50.164;8.012;2023-05-07T14:12:30;6.82;;;3.30;;
76373;SDS011;65197;50.164;8.012;2023-05-07T14:14:56;5.57;;;2.80;;
76373;SDS011;65197;50.164;8.012;2023-05-07T14:17:21;4.82;;;2.95;;
76373;SDS011;65197;50.164;8.012;2023-05-07T14:19:50;4.20;;;2.88;;
76373;SDS011;65197;50.164;8.012;2023-05-07T14:22:15;3.30;;;2.50;;
76373;SDS011;65197;50.164;8.012;2023-05-07T14:24:40;3.72;;;2.83;;
76373;SDS011;65197;50.164;8.012;2023-05-07T14:27:06;4.95;;;3.40;;
76373;SDS011;65197;50.164;8.012;2023-05-07T14:29:31;4.85;;;2.95;;
76373;SDS011;65197;50.164;8.012;2023-05-07T14:31:57;3.55;;;3.03;;
76373;SDS011;65197;50.164;8.012;2023-05-07T14:34:22;4.65;;;3.40;;
76373;SDS011;65197;50.164;8.012;2023-05-07T14:36:48;4.60;;;3.30;;
76373;SDS011;65197;50.164;8.012;2023-05-07T14:39:13;4.20;;;3.20;;
76373;SDS011;65197;50.164;8.012;2023-05-07T14:41:38;4.20;;;3.15;;
76373;SDS011;65197;50.164;8.012;2023-05-07T14:44:04;4.95;;;3.45;;
76373;SDS011;65197;50.164;8.012;2023-05-07T14:46:29;3.78;;;3.40;;
76373;SDS011;65197;50.164;8.012;2023-05-07T14:48:56;5.30;;;3.72;;
76373;SDS011;65197;50.164;8.012;2023-05-07T14:51:22;4.78;;;3.45;;
76373;SDS011;65197;50.164;8.012;2023-05-07T14:53:48;4.70;;;3.88;;
76373;SDS011;65197;50.164;8.012;2023-05-07T14:56:14;8.07;;;4.85;;
76373;SDS011;65197;50.164;8.012;2023-05-07T14:58:40;5.47;;;4.57;;
76373;SDS011;65197;50.164;8.012;2023-05-07T15:01:05;4.25;;;3.70;;
76373;SDS011;65197;50.164;8.012;2023-05-07T15:03:31;4.68;;;3.78;;
76373;SDS011;65197;50.164;8.012;2023-05-07T15:05:56;4.60;;;3.95;;